Time;durP1;ratioP1;P1;durP2;ratioP2;P2;SDS_P1;SDS_P2;PMS_P1;PMS_P2;Temp;Humidity;BMP_temperature;BMP_pressure;BME280_temperature;BME280_humidity;BME280_pressure;Samples;Min_cycle;Max_cycle;Signal;HPM_P1;HPM_P2
2020/03/05 00:00:55;;;;;;;4.7;2.1;;;;;;;;;;;;;
2020/03/05 00:04:54;;;;;;;4.6;1.9;;;;;;;;;;;;;
2020/03/05 00:07:19;;;;;;;3.5;1.8;;;;;;;;;;;;;
2020/03/05 00:09:44;;;;;;;5.4;2;;;;;;;;;;;;;
2020/03/05 00:12:09;;;;;;;3.3;1.4;;;;;;;;;;;;;
2020/03/05 00:14:35;;;;;;;3.7;1.7;;;;;;;;;;;;;
2020/03/05 00:17:00;;;;;;;3.9;1.5;;;;;;;;;;;;;
2020/03/05 00:19:25;;;;;;;3.4;1.7;;;;;;;;;;;;;
2020/03/05 00:21:50;;;;;;;9.4;2;;;;;;;;;;;;;
2020/03/05 00:24:15;;;;;;;3.3;1.5;;;;;;;;;;;;;
2020/03/05 00:26:40;;;;;;;3;1.6;;;;;;;;;;;;;
2020/03/05 00:29:05;;;;;;;3.8;1.7;;;;;;;;;;;;;
2020/03/05 00:31:30;;;;;;;3.2;1.6;;;;;;;;;;;;;
2020/03/05 00:33:56;;;;;;;3.3;1.5;;;;;;;;;;;;;
2020/03/05 00:36:21;;;;;;;2.9;1.5;;;;;;;;;;;;;
2020/03/05 00:38:46;;;;;;;5.1;1.7;;;;;;;;;;;;;
2020/03/05 00:41:11;;;;;;;3.2;1.8;;;;;;;;;;;;;
2020/03/05 00:43:36;;;;;;;3.9;1.8;;;;;;;;;;;;;
2020/03/05 00:46:01;;;;;;;5;1.9;;;;;;;;;;;;;
2020/03/05 00:48:26;;;;;;;4.3;1.9;;;;;;;;;;;;;
2020/03/05 00:50:51;;;;;;;5.4;2;;;;;;;;;;;;;
2020/03/05 01:07:54;;;;;;;5.3;1.7;;;;;;;;;;;;;
2020/03/05 01:10:20;;;;;;;4.2;1.6;;;;;;;;;;;;;
2020/03/05 01:12:39;;;;;;;2.8;1.5;;;;;;;;;;;;;
2020/03/05 01:15:03;;;;;;;4.9;1.5;;;;;;;;;;;;;
2020/03/05 01:17:27;;;;;;;2.3;1.5;;;;;;;;;;;;;
2020/03/05 01:19:53;;;;;;;4;1.5;;;;;;;;;;;;;
2020/03/05 01:22:18;;;;;;;3.2;1.5;;;;;;;;;;;;;
2020/03/05 01:24:43;;;;;;;4.3;1.5;;;;;;;;;;;;;
2020/03/05 01:27:08;;;;;;;3.5;1.7;;;;;;;;;;;;;
2020/03/05 01:29:33;;;;;;;5.5;2.2;;;;;;;;;;;;;
2020/03/05 01:31:58;;;;;;;3.5;1.8;;;;;;;;;;;;;
2020/03/05 01:34:23;;;;;;;3.9;1.8;;;;;;;;;;;;;
2020/03/05 01:36:48;;;;;;;3.4;1.9;;;;;;;;;;;;;
2020/03/05 01:39:14;;;;;;;4.5;1.9;;;;;;;;;;;;;
2020/03/05 01:41:39;;;;;;;3.7;1.9;;;;;;;;;;;;;
2020/03/05 01:44:04;;;;;;;4.5;2.1;;;;;;;;;;;;;
2020/03/05 01:46:29;;;;;;;3.8;1.4;;;;;;;;;;;;;
2020/03/05 01:48:54;;;;;;;3.2;1.4;;;;;;;;;;;;;
2020/03/05 01:51:19;;;;;;;2.8;1.5;;;;;;;;;;;;;
2020/03/05 01:53:44;;;;;;;3.2;1.5;;;;;;;;;;;;;
2020/03/05 01:56:09;;;;;;;3;1.6;;;;;;;;;;;;;
2020/03/05 01:58:34;;;;;;;3.1;1.7;;;;;;;;;;;;;
2020/03/05 02:00:59;;;;;;;3.8;1.8;;;;;;;;;;;;;
2020/03/05 02:03:25;;;;;;;4.6;1.8;;;;;;;;;;;;;
2020/03/05 02:05:50;;;;;;;3.1;1.6;;;;;;;;;;;;;
2020/03/05 02:08:15;;;;;;;3.9;1.7;;;;;;;;;;;;;
2020/03/05 02:10:41;;;;;;;3.7;1.7;;;;;;;;;;;;;
2020/03/05 02:13:06;;;;;;;8.8;2.1;;;;;;;;;;;;;
2020/03/05 02:15:31;;;;;;;3.1;1.4;;;;;;;;;;;;;
2020/03/05 02:17:56;;;;;;;4.1;1.2;;;;;;;;;;;;;
2020/03/05 02:20:21;;;;;;;4.5;1.4;;;;;;;;;;;;;
2020/03/05 02:22:46;;;;;;;2.8;1.2;;;;;;;;;;;;;
2020/03/05 02:25:11;;;;;;;7.9;1.5;;;;;;;;;;;;;
2020/03/05 02:27:36;;;;;;;3.4;1.4;;;;;;;;;;;;;
2020/03/05 02:30:02;;;;;;;3;1.3;;;;;;;;;;;;;
2020/03/05 02:32:27;;;;;;;2.7;1.2;;;;;;;;;;;;;
2020/03/05 02:34:52;;;;;;;4.3;1.4;;;;;;;;;;;;;
2020/03/05 02:37:17;;;;;;;6.2;1.7;;;;;;;;;;;;;
2020/03/05 02:39:42;;;;;;;7.9;1.7;;;;;;;;;;;;;
2020/03/05 02:42:07;;;;;;;5.7;1.7;;;;;;;;;;;;;
2020/03/05 02:44:32;;;;;;;4.8;1.7;;;;;;;;;;;;;
2020/03/05 02:46:57;;;;;;;4;1.8;;;;;;;;;;;;;
2020/03/05 02:49:22;;;;;;;5.9;1.8;;;;;;;;;;;;;
2020/03/05 02:51:47;;;;;;;4.7;1.9;;;;;;;;;;;;;
2020/03/05 02:54:12;;;;;;;4.7;1.9;;;;;;;;;;;;;
2020/03/05 02:56:38;;;;;;;5.7;4.3;;;;;;;;;;;;;
2020/03/05 02:59:03;;;;;;;5.8;2.2;;;;;;;;;;;;;
2020/03/05 03:01:28;;;;;;;5.6;3;;;;;;;;;;;;;
2020/03/05 03:03:53;;;;;;;6.6;2.5;;;;;;;;;;;;;
2020/03/05 03:06:18;;;;;;;3.8;1.8;;;;;;;;;;;;;
2020/03/05 03:08:43;;;;;;;5.8;2.1;;;;;;;;;;;;;
2020/03/05 03:11:08;;;;;;;5;2.3;;;;;;;;;;;;;
2020/03/05 03:13:33;;;;;;;5.6;2.7;;;;;;;;;;;;;
2020/03/05 03:15:58;;;;;;;5.9;2.3;;;;;;;;;;;;;
2020/03/05 03:18:24;;;;;;;3.8;1.9;;;;;;;;;;;;;
2020/03/05 03:20:49;;;;;;;4.5;1.9;;;;;;;;;;;;;
2020/03/05 03:23:14;;;;;;;4.8;2.1;;;;;;;;;;;;;
2020/03/05 03:25:39;;;;;;;3.9;1.9;;;;;;;;;;;;;
2020/03/05 03:28:04;;;;;;;3.2;1.5;;;;;;;;;;;;;
2020/03/05 03:30:29;;;;;;;3.4;1.3;;;;;;;;;;;;;
2020/03/05 03:32:55;;;;;;;3.1;1.6;;;;;;;;;;;;;
2020/03/05 03:35:20;;;;;;;2.6;1.6;;;;;;;;;;;;;
2020/03/05 03:37:45;;;;;;;4;1.5;;;;;;;;;;;;;
2020/03/05 03:40:10;;;;;;;4.2;1.4;;;;;;;;;;;;;
2020/03/05 03:42:35;;;;;;;2.7;1.3;;;;;;;;;;;;;
2020/03/05 03:45:01;;;;;;;5.7;1.5;;;;;;;;;;;;;
2020/03/05 03:47:26;;;;;;;4.6;1.5;;;;;;;;;;;;;
2020/03/05 03:49:51;;;;;;;8;2.2;;;;;;;;;;;;;
2020/03/05 03:52:16;;;;;;;8.8;2.6;;;;;;;;;;;;;
2020/03/05 03:54:41;;;;;;;10.4;3;;;;;;;;;;;;;
2020/03/05 03:57:06;;;;;;;10.2;2.4;;;;;;;;;;;;;
2020/03/05 03:59:31;;;;;;;5.1;1.6;;;;;;;;;;;;;
2020/03/05 04:02:30;;;;;;;3.6;1.5;;;;;;;2.24;69.32031;928.8141;;;;
2020/03/05 04:04:55;;;;;;;2.7;1.6;;;;;;;2.14;70.05176;928.9305;;;;
2020/03/05 04:07:20;;;;;;;4.1;1.6;;;;;;;2.37;70.10254;928.8431;;;;
2020/03/05 04:09:45;;;;;;;3.4;1.4;;;;;;;2.35;70.22266;928.7972;;;;
2020/03/05 04:12:10;;;;;;;5.1;1.9;;;;;;;2.25;71.25879;928.7922;;;;
2020/03/05 04:14:35;;;;;;;4.6;1.6;;;;;;;2.25;71.5498;928.7419;;;;
2020/03/05 04:17:01;;;;;;;3.5;1.5;;;;;;;2.23;71.65723;928.7092;;;;
2020/03/05 04:19:26;;;;;;;5.5;1.8;;;;;;;2.17;72.16309;928.6989;;;;
2020/03/05 04:21:51;;;;;;;4.7;1.5;;;;;;;2.15;72.40625;928.6559;;;;
2020/03/05 04:24:16;;;;;;;3.9;1.6;;;;;;;2.26;72.26855;928.6072;;;;
2020/03/05 04:26:41;;;;;;;4.1;1.8;;;;;;;2.52;72.64746;928.5814;;;;
2020/03/05 04:29:06;;;;;;;3.7;1.9;;;;;;;2.57;72.71289;928.6368;;;;
2020/03/05 04:31:31;;;;;;;3.4;1.6;;;;;;;2.65;71.70703;928.5862;;;;
2020/03/05 04:33:56;;;;;;;2.3;1.6;;;;;;;2.66;71.66309;928.5056;;;;
2020/03/05 04:36:21;;;;;;;3.9;1.8;;;;;;;2.74;71.35156;928.5916;;;;
2020/03/05 04:38:46;;;;;;;3.8;2;;;;;;;2.67;71.32813;928.4988;;;;
2020/03/05 04:41:12;;;;;;;3.1;1.7;;;;;;;2.64;71.97266;928.3934;;;;
2020/03/05 04:43:37;;;;;;;3.2;1.6;;;;;;;2.62;71.11914;928.3672;;;;
2020/03/05 04:46:02;;;;;;;3.4;1.8;;;;;;;2.65;71.26953;928.3828;;;;
2020/03/05 04:48:27;;;;;;;2.8;1.5;;;;;;;2.55;71.27539;928.3087;;;;
2020/03/05 04:50:52;;;;;;;3.2;1.9;;;;;;;2.53;71.79883;928.2698;;;;
2020/03/05 04:53:17;;;;;;;2.9;1.4;;;;;;;2.62;71.63281;928.2264;;;;
2020/03/05 04:55:43;;;;;;;4.4;2.3;;;;;;;2.7;72.07422;928.2402;;;;
2020/03/05 04:58:08;;;;;;;13;7.6;;;;;;;2.55;72.33008;928.1619;;;;
2020/03/05 05:00:33;;;;;;;9.2;6.4;;;;;;;2.53;72.75098;928.0703;;;;
2020/03/05 05:02:58;;;;;;;6.4;3.8;;;;;;;2.22;72.74219;928.1412;;;;
2020/03/05 05:05:23;;;;;;;3.2;1.7;;;;;;;2.12;71.76367;928.1669;;;;
2020/03/05 05:07:48;;;;;;;4.4;2.7;;;;;;;2.15;72.78711;928.0891;;;;
2020/03/05 05:10:13;;;;;;;2.7;1.3;;;;;;;2.03;70.54883;928.0894;;;;
2020/03/05 05:12:38;;;;;;;3.4;1.4;;;;;;;2.27;70.42188;928.0027;;;;
2020/03/05 05:15:03;;;;;;;2.3;1.3;;;;;;;2.54;69.22266;927.9017;;;;
2020/03/05 05:17:29;;;;;;;2.3;1.3;;;;;;;2.62;68.89941;927.8258;;;;
2020/03/05 05:19:54;;;;;;;4.8;2.7;;;;;;;2.43;71.74805;927.7883;;;;
2020/03/05 05:22:19;;;;;;;3;1.6;;;;;;;2.35;72.7207;927.7822;;;;
2020/03/05 05:24:45;;;;;;;3.5;1.5;;;;;;;2.26;73.28711;927.6711;;;;
2020/03/05 05:27:10;;;;;;;3.2;1.7;;;;;;;2.16;74.58984;927.6904;;;;
2020/03/05 05:29:35;;;;;;;2.7;1.6;;;;;;;2.28;72.5957;927.6386;;;;
2020/03/05 05:32:00;;;;;;;3.4;2.1;;;;;;;2.4;73.83691;927.5736;;;;
2020/03/05 05:34:25;;;;;;;3.7;2.4;;;;;;;2.48;73.70703;927.5428;;;;
2020/03/05 05:36:50;;;;;;;3.6;1.8;;;;;;;2.61;73.15723;927.4476;;;;
2020/03/05 05:39:16;;;;;;;6.5;4.2;;;;;;;2.66;72.52637;927.6035;;;;
2020/03/05 05:41:41;;;;;;;18.9;12.4;;;;;;;2.62;72.97949;927.5312;;;;
2020/03/05 05:44:06;;;;;;;5.5;2.6;;;;;;;2.56;73.36133;927.4525;;;;
2020/03/05 05:46:31;;;;;;;4.9;2.6;;;;;;;2.58;74.33008;927.3886;;;;
2020/03/05 05:48:56;;;;;;;5.5;3.5;;;;;;;2.41;74.54492;927.4045;;;;
2020/03/05 05:51:21;;;;;;;5.8;3.5;;;;;;;2.21;74.91406;927.4014;;;;
2020/03/05 05:53:46;;;;;;;5.6;3.5;;;;;;;2.23;74.75;927.3674;;;;
2020/03/05 05:56:11;;;;;;;8.3;4.5;;;;;;;2.26;74.7207;927.3727;;;;
2020/03/05 05:58:36;;;;;;;10.9;4.6;;;;;;;2.46;74.0166;927.3914;;;;
2020/03/05 06:01:01;;;;;;;8.3;3.9;;;;;;;2.26;73.44238;927.2172;;;;
2020/03/05 06:03:27;;;;;;;7.4;3.5;;;;;;;2.38;73.58789;927.2417;;;;
2020/03/05 06:05:52;;;;;;;10.6;4.8;;;;;;;2.6;73.00879;927.2578;;;;
2020/03/05 06:08:17;;;;;;;8.4;3.6;;;;;;;2.62;72.98926;927.245;;;;
2020/03/05 06:10:42;;;;;;;4;3.1;;;;;;;2.55;72.96777;927.2866;;;;
2020/03/05 06:13:07;;;;;;;5.5;2.6;;;;;;;2.35;73.87305;927.1845;;;;
2020/03/05 06:15:32;;;;;;;8.4;2.8;;;;;;;2.36;74.33301;927.1533;;;;
2020/03/05 06:17:57;;;;;;;6.9;3.8;;;;;;;2.47;74.39844;927.1451;;;;
2020/03/05 06:20:22;;;;;;;8.5;2.8;;;;;;;2.61;73.56152;927.0941;;;;
2020/03/05 06:22:47;;;;;;;6.3;2.6;;;;;;;2.79;72.66016;926.9869;;;;
2020/03/05 06:25:12;;;;;;;5.6;3.4;;;;;;;2.87;72.21387;927.0586;;;;
2020/03/05 06:27:37;;;;;;;5.4;3.1;;;;;;;2.91;73.0293;927.0075;;;;
2020/03/05 06:30:02;;;;;;;3.7;2;;;;;;;2.83;72.64551;926.9133;;;;
2020/03/05 06:32:27;;;;;;;3.9;2;;;;;;;2.81;72.30566;926.8948;;;;
2020/03/05 06:34:52;;;;;;;5.9;2.2;;;;;;;2.6;73.88281;926.8656;;;;
2020/03/05 06:37:18;;;;;;;3.9;1.9;;;;;;;2.66;73.43457;926.8098;;;;
2020/03/05 06:39:43;;;;;;;4.5;1.6;;;;;;;2.96;71.78125;926.8136;;;;
2020/03/05 06:42:08;;;;;;;6.5;3;;;;;;;3.08;72.28516;926.8192;;;;
2020/03/05 06:44:33;;;;;;;31.4;12.5;;;;;;;3.14;72.30664;926.7693;;;;
2020/03/05 06:46:58;;;;;;;5.7;3;;;;;;;3.03;70.0332;926.743;;;;
2020/03/05 06:49:24;;;;;;;23.9;4.3;;;;;;;3.27;70.45313;926.6939;;;;
2020/03/05 06:51:49;;;;;;;15.1;4.5;;;;;;;3.4;70.08105;926.6908;;;;
2020/03/05 06:54:14;;;;;;;15.5;7.9;;;;;;;3.44;70.50293;926.6476;;;;
2020/03/05 06:56:39;;;;;;;6.6;2.6;;;;;;;3.4;70.44043;926.6939;;;;
2020/03/05 06:59:04;;;;;;;13.3;5.3;;;;;;;3.25;71.21191;926.7581;;;;
2020/03/05 07:01:29;;;;;;;16.6;5.6;;;;;;;3.04;72.2998;926.6392;;;;
2020/03/05 07:03:55;;;;;;;28.2;10.8;;;;;;;3.11;72.37891;926.6406;;;;
2020/03/05 07:06:20;;;;;;;33.1;11.5;;;;;;;3.36;72.16406;926.5934;;;;
2020/03/05 07:08:45;;;;;;;19.6;10;;;;;;;3.53;71.79883;926.5656;;;;
2020/03/05 07:11:11;;;;;;;19.8;7.7;;;;;;;3.64;70.65918;926.563;;;;
2020/03/05 07:13:36;;;;;;;17.3;7.6;;;;;;;3.63;70.08496;926.489;;;;
2020/03/05 07:16:02;;;;;;;18.7;7.8;;;;;;;3.76;69.9834;926.5405;;;;
2020/03/05 07:18:30;;;;;;;17.7;5.3;;;;;;;3.62;69.78027;926.4636;;;;
2020/03/05 07:20:55;;;;;;;12.4;5.8;;;;;;;3.7;70.79492;926.3886;;;;
2020/03/05 07:23:20;;;;;;;13.9;5.6;;;;;;;3.89;69.67871;926.3358;;;;
2020/03/05 07:25:45;;;;;;;43.7;8.3;;;;;;;3.9;73.66113;926.2604;;;;
2020/03/05 07:28:10;;;;;;;13.9;5.4;;;;;;;3.88;70.20508;926.2238;;;;
2020/03/05 07:30:35;;;;;;;7.4;2;;;;;;;3.89;66.18359;926.154;;;;
2020/03/05 07:33:01;;;;;;;56.8;10.8;;;;;;;3.86;69.1123;926.2266;;;;
2020/03/05 07:35:26;;;;;;;23.1;6.6;;;;;;;3.98;66.70215;926.2615;;;;
2020/03/05 07:37:52;;;;;;;19.3;7.5;;;;;;;4.1;67.81152;926.2304;;;;
2020/03/05 07:40:16;;;;;;;36.9;9.7;;;;;;;4.24;67.59863;926.1783;;;;
2020/03/05 07:42:41;;;;;;;17.8;5.7;;;;;;;4.32;66.94727;926.0831;;;;
2020/03/05 07:45:06;;;;;;;29.6;8.3;;;;;;;4.58;65.79492;926.0725;;;;
2020/03/05 07:47:31;;;;;;;18.8;6.1;;;;;;;4.83;64.93262;925.997;;;;
2020/03/05 07:49:56;;;;;;;13.2;3.5;;;;;;;4.84;61.95898;925.8583;;;;
2020/03/05 07:52:21;;;;;;;45.8;7.4;;;;;;;5.15;62.62207;925.7631;;;;
2020/03/05 07:54:46;;;;;;;22.7;5.3;;;;;;;5.18;62.39063;925.6994;;;;
2020/03/05 07:57:12;;;;;;;49.8;7.9;;;;;;;5.54;60.55859;925.6944;;;;
2020/03/05 07:59:37;;;;;;;11.5;2.8;;;;;;;5.64;57.66113;925.7095;;;;
2020/03/05 08:02:02;;;;;;;11.6;2.8;;;;;;;6.03;58.19922;925.5953;;;;
2020/03/05 08:04:27;;;;;;;9.1;2.3;;;;;;;6.49;54.91309;925.5823;;;;
2020/03/05 08:06:52;;;;;;;12;2.1;;;;;;;6.88;52.71191;925.4821;;;;
2020/03/05 08:09:18;;;;;;;15.3;3.6;;;;;;;7.31;52.28809;925.4469;;;;
2020/03/05 08:11:43;;;;;;;21.9;5;;;;;;;7.63;51.5791;925.407;;;;
2020/03/05 08:14:08;;;;;;;17.2;3.1;;;;;;;7.97;50.94922;925.3173;;;;
2020/03/05 08:16:33;;;;;;;22.1;4;;;;;;;8.42;49.88965;925.2942;;;;
2020/03/05 08:18:58;;;;;;;5.9;1.8;;;;;;;8.56;48.0752;925.1731;;;;
2020/03/05 08:21:23;;;;;;;22;3.6;;;;;;;8.71;48.73926;925.218;;;;
2020/03/05 08:23:49;;;;;;;14.1;2.5;;;;;;;9.35;47.16113;925.1514;;;;
2020/03/05 08:26:14;;;;;;;10.5;2.2;;;;;;;9.66;46.44336;925.1138;;;;
2020/03/05 08:28:39;;;;;;;4;1.3;;;;;;;8.81;46.86426;925.1273;;;;
2020/03/05 08:31:04;;;;;;;11.1;1.9;;;;;;;8.48;48.56738;925.0695;;;;
2020/03/05 08:33:29;;;;;;;16.1;2.3;;;;;;;8.53;48.06152;925.0145;;;;
2020/03/05 08:35:54;;;;;;;8.5;2;;;;;;;8.44;48.11914;925;;;;
2020/03/05 08:38:19;;;;;;;7.9;1.7;;;;;;;8.68;46.96387;924.9824;;;;
2020/03/05 08:40:45;;;;;;;24.2;2.6;;;;;;;8.55;47.07422;924.813;;;;
2020/03/05 08:43:10;;;;;;;29;3.3;;;;;;;8.43;48.00293;924.8652;;;;
2020/03/05 08:45:35;;;;;;;1.9;1.1;;;;;;;8.02;46.7207;924.7247;;;;
2020/03/05 08:48:01;;;;;;;2.7;1.2;;;;;;;8.04;47.84668;924.7159;;;;
2020/03/05 08:50:30;;;;;;;12;2.3;;;;;;;8.64;47.94922;924.6462;;;;
2020/03/05 08:52:55;;;;;;;8.7;2.3;;;;;;;8.36;47.99609;924.6519;;;;
2020/03/05 08:55:20;;;;;;;10.4;2.7;;;;;;;8.75;47.80078;924.5567;;;;
2020/03/05 08:57:46;;;;;;;9.7;2.9;;;;;;;8.85;48.22266;924.4635;;;;
2020/03/05 09:00:10;;;;;;;9.2;2.6;;;;;;;9.09;48.83887;924.4812;;;;
2020/03/05 09:02:36;;;;;;;8.3;2.1;;;;;;;8.87;46.54102;924.4126;;;;
2020/03/05 09:05:00;;;;;;;10.5;2;;;;;;;8.54;47.15234;924.353;;;;
2020/03/05 09:07:26;;;;;;;24.2;3.7;;;;;;;8.62;48.13867;924.3496;;;;
2020/03/05 09:09:51;;;;;;;13.7;2.5;;;;;;;8.92;46.65918;924.3242;;;;
2020/03/05 09:12:16;;;;;;;11.8;2.9;;;;;;;9.14;46.18262;924.1791;;;;
2020/03/05 09:14:41;;;;;;;8.9;1.8;;;;;;;9.7;44.54492;924.162;;;;
2020/03/05 09:17:06;;;;;;;10.5;2.1;;;;;;;10.27;45.01465;924.0994;;;;
2020/03/05 09:19:31;;;;;;;10.2;2.5;;;;;;;10.86;44.13965;923.9919;;;;
2020/03/05 09:21:56;;;;;;;3.1;1.5;;;;;;;10.91;40.64746;923.8678;;;;
2020/03/05 09:24:21;;;;;;;1.9;0.8;;;;;;;10.63;41.4209;923.8677;;;;
2020/03/05 09:26:46;;;;;;;10.1;1.7;;;;;;;10.78;42.01758;923.8273;;;;
2020/03/05 09:29:11;;;;;;;9.2;2.6;;;;;;;10.77;40.85156;923.8384;;;;
2020/03/05 09:31:37;;;;;;;5.1;1.7;;;;;;;11.01;41.71973;923.7683;;;;
2020/03/05 09:34:02;;;;;;;2.3;0.8;;;;;;;11.03;41.03613;923.6894;;;;
2020/03/05 09:36:27;;;;;;;4.3;1.8;;;;;;;10.61;38.99805;923.6506;;;;
2020/03/05 09:38:52;;;;;;;5.1;1.3;;;;;;;10.66;38.44238;923.6301;;;;
2020/03/05 09:41:17;;;;;;;7.9;1.5;;;;;;;10.61;38.87207;923.5933;;;;
2020/03/05 09:43:42;;;;;;;66.8;33;;;;;;;10.91;38.24805;923.6074;;;;
2020/03/05 09:46:07;;;;;;;208.6;134.3;;;;;;;11.36;39.37402;923.5807;;;;
2020/03/05 09:48:32;;;;;;;21.5;13.3;;;;;;;11.7;39.22168;923.5695;;;;
2020/03/05 09:50:57;;;;;;;6.8;1.6;;;;;;;11.83;40.93945;923.405;;;;
2020/03/05 09:53:23;;;;;;;2.6;0.7;;;;;;;11.73;38.0918;923.4374;;;;
2020/03/05 09:55:48;;;;;;;1.9;0.8;;;;;;;11.44;38.93555;923.4146;;;;
2020/03/05 09:58:13;;;;;;;2.7;0.8;;;;;;;11.74;39.91211;923.316;;;;
2020/03/05 10:00:38;;;;;;;3.3;0.9;;;;;;;11.65;37.19141;923.2737;;;;
2020/03/05 10:03:04;;;;;;;1.5;0.7;;;;;;;10.8;37.88281;923.1575;;;;
2020/03/05 10:05:29;;;;;;;1;0.7;;;;;;;10.63;38.77148;923.1482;;;;
2020/03/05 10:07:54;;;;;;;1.9;0.9;;;;;;;10.75;40.95117;923.0356;;;;
2020/03/05 10:10:20;;;;;;;2.9;1.5;;;;;;;10.75;37.63965;923.0929;;;;
2020/03/05 10:12:45;;;;;;;3.2;0.8;;;;;;;10.79;38.87598;923.0732;;;;
2020/03/05 10:15:10;;;;;;;4.7;1;;;;;;;10.79;38.27051;923.0715;;;;
2020/03/05 10:17:36;;;;;;;4.4;1.5;;;;;;;10.92;39.40332;922.9925;;;;
2020/03/05 10:20:01;;;;;;;4;1;;;;;;;10.79;38.77344;922.9347;;;;
2020/03/05 10:22:26;;;;;;;2.5;1;;;;;;;11.09;38.02344;922.9476;;;;
2020/03/05 10:24:51;;;;;;;3.5;1.7;;;;;;;11.08;37.05078;922.9797;;;;
2020/03/05 10:27:17;;;;;;;3.6;1.2;;;;;;;11.01;37.54785;922.9042;;;;
2020/03/05 10:29:42;;;;;;;3.7;1.5;;;;;;;11.13;37.3291;922.8195;;;;
2020/03/05 10:32:07;;;;;;;5.9;1.8;;;;;;;11.04;37.62988;922.7606;;;;
2020/03/05 10:34:34;;;;;;;5.3;2;;;;;;;10.97;37.21289;922.7455;;;;
2020/03/05 10:36:58;;;;;;;32.3;12.8;;;;;;;10.93;38.80957;922.6372;;;;
2020/03/05 10:39:23;;;;;;;76.8;40.9;;;;;;;10.81;37.3252;922.6862;;;;
2020/03/05 10:41:48;;;;;;;138.8;50.9;;;;;;;10.71;37.60156;922.671;;;;
2020/03/05 10:44:13;;;;;;;20.4;8.5;;;;;;;10.75;37.49121;922.5652;;;;
2020/03/05 10:46:38;;;;;;;100.3;56.3;;;;;;;10.58;37.66992;922.5438;;;;
2020/03/05 10:49:03;;;;;;;5.2;2.5;;;;;;;10.35;38.75781;922.4984;;;;
2020/03/05 10:51:29;;;;;;;6.3;2.1;;;;;;;10.39;39.28613;922.5011;;;;
2020/03/05 10:53:53;;;;;;;3.9;1.9;;;;;;;10.46;37.72754;922.4406;;;;
2020/03/05 10:56:20;;;;;;;6;1.6;;;;;;;10.39;39.1377;922.424;;;;
2020/03/05 10:58:44;;;;;;;3.5;1.3;;;;;;;10.33;38.56152;922.3621;;;;
2020/03/05 11:01:09;;;;;;;7.7;2;;;;;;;10.34;38.92773;922.3236;;;;
2020/03/05 11:03:34;;;;;;;4.5;1.5;;;;;;;10.24;38.99805;922.2346;;;;
2020/03/05 11:05:59;;;;;;;7.1;1.7;;;;;;;10.23;39.89844;922.2603;;;;
2020/03/05 11:08:25;;;;;;;12.2;1.8;;;;;;;10.3;39.63184;922.2542;;;;
2020/03/05 11:10:50;;;;;;;9.2;1.8;;;;;;;10.26;40.1416;922.1475;;;;
2020/03/05 11:13:15;;;;;;;8.2;1.3;;;;;;;10.4;41.0791;922.1995;;;;
2020/03/05 11:15:40;;;;;;;2.9;1.4;;;;;;;10.57;39.50781;922.1078;;;;
2020/03/05 11:18:05;;;;;;;9.4;1.6;;;;;;;10.41;40.45215;922.0428;;;;
2020/03/05 11:20:30;;;;;;;11.2;1.7;;;;;;;10.17;40.98926;922.1197;;;;
2020/03/05 11:22:56;;;;;;;7.3;1.5;;;;;;;10.27;41.35254;922.0145;;;;
2020/03/05 11:25:20;;;;;;;9;1.6;;;;;;;10.24;41.15527;922.0253;;;;
2020/03/05 11:27:46;;;;;;;3.7;1.1;;;;;;;10.06;41.46777;921.9815;;;;
2020/03/05 11:30:11;;;;;;;2.7;1.3;;;;;;;10.19;41.85742;921.9881;;;;
2020/03/05 11:32:36;;;;;;;3.8;1.4;;;;;;;10.23;41.80371;921.9054;;;;
2020/03/05 11:35:01;;;;;;;8.3;1.5;;;;;;;10.31;42.39453;921.8261;;;;
2020/03/05 11:37:26;;;;;;;3.5;1.2;;;;;;;10.26;42.74316;921.7721;;;;
2020/03/05 11:39:54;;;;;;;3.8;1.1;;;;;;;10.24;42.375;921.7383;;;;
2020/03/05 11:42:16;;;;;;;4.9;1.6;;;;;;;10.26;42.6748;921.6647;;;;
2020/03/05 11:44:41;;;;;;;7.2;1.5;;;;;;;10.6;42.44629;921.6409;;;;
2020/03/05 11:47:10;;;;;;;4.3;1.2;;;;;;;10.75;42.04883;921.5613;;;;
2020/03/05 11:49:35;;;;;;;4.7;1.2;;;;;;;10.59;42.68359;921.5289;;;;
2020/03/05 11:52:00;;;;;;;3.6;1.2;;;;;;;10.39;43.17773;921.5425;;;;
2020/03/05 11:54:25;;;;;;;4.6;1.2;;;;;;;10.35;43.35742;921.4199;;;;
2020/03/05 11:56:50;;;;;;;4.3;1.3;;;;;;;10.22;43.91406;921.3608;;;;
2020/03/05 11:59:16;;;;;;;7.4;1.8;;;;;;;10.37;44.05469;921.3089;;;;
2020/03/05 12:01:40;;;;;;;4.7;1.7;;;;;;;10.36;44.54395;921.3035;;;;
2020/03/05 12:04:05;;;;;;;4.8;1.2;;;;;;;10.25;44.79492;921.2252;;;;
2020/03/05 12:06:31;;;;;;;4.6;1.3;;;;;;;10.18;45.34668;921.1827;;;;
2020/03/05 12:08:56;;;;;;;15.4;2;;;;;;;10.29;44.87891;921.183;;;;
2020/03/05 12:11:21;;;;;;;15.5;2.2;;;;;;;10.28;45.96289;921.1131;;;;
2020/03/05 12:13:46;;;;;;;6.7;1.4;;;;;;;10.18;44.9248;921.1486;;;;
2020/03/05 12:16:11;;;;;;;3.7;1.1;;;;;;;9.98;45.99902;921.0751;;;;
2020/03/05 12:18:37;;;;;;;5.9;1.3;;;;;;;9.94;46.09766;921.0488;;;;
2020/03/05 12:21:02;;;;;;;4.5;1.2;;;;;;;9.9;46.49121;920.9875;;;;
2020/03/05 12:23:27;;;;;;;5.9;1.3;;;;;;;9.75;47.05762;920.9188;;;;
2020/03/05 12:25:52;;;;;;;5.5;1.4;;;;;;;9.7;46.99512;920.8965;;;;
2020/03/05 12:28:17;;;;;;;6.8;1.2;;;;;;;9.72;47.13379;920.8041;;;;
2020/03/05 12:30:42;;;;;;;1.6;1.1;;;;;;;9.67;47.74316;920.905;;;;
2020/03/05 12:33:07;;;;;;;4.1;1.4;;;;;;;9.57;48.3252;920.7981;;;;
2020/03/05 12:35:32;;;;;;;5;1.4;;;;;;;9.43;48.95898;920.7549;;;;
2020/03/05 12:37:57;;;;;;;5.9;1.2;;;;;;;9.53;49.04883;920.7654;;;;
2020/03/05 12:40:23;;;;;;;17.2;5.1;;;;;;;9.62;48.85547;920.6666;;;;
2020/03/05 12:42:48;;;;;;;6.5;1.6;;;;;;;9.48;50.32031;920.5938;;;;
2020/03/05 12:45:13;;;;;;;3.4;1.1;;;;;;;9.51;50.61914;920.4925;;;;
2020/03/05 12:47:38;;;;;;;6.3;1.4;;;;;;;9.6;52.04199;920.4989;;;;
2020/03/05 12:50:03;;;;;;;6;1.4;;;;;;;9.45;51.26172;920.456;;;;
2020/03/05 12:52:28;;;;;;;4.8;1.4;;;;;;;9.34;51.9541;920.2961;;;;
2020/03/05 12:54:53;;;;;;;5.2;1.6;;;;;;;9.33;52.5;920.4305;;;;
2020/03/05 12:57:18;;;;;;;7.6;1.6;;;;;;;9.35;52.47949;920.2897;;;;
2020/03/05 12:59:44;;;;;;;3.8;1.2;;;;;;;9.02;53.63379;920.2522;;;;
2020/03/05 13:02:09;;;;;;;2.9;1.1;;;;;;;9.09;54.41504;920.2543;;;;
2020/03/05 13:04:34;;;;;;;3;1.3;;;;;;;8.98;55.0625;920.192;;;;
2020/03/05 13:06:59;;;;;;;3.4;1.4;;;;;;;9.01;56.59082;920.1895;;;;
2020/03/05 13:09:24;;;;;;;2.6;1.1;;;;;;;8.81;57.82617;920.1039;;;;
2020/03/05 13:11:50;;;;;;;1.7;1.1;;;;;;;8.69;59.58398;920.1267;;;;
2020/03/05 13:14:15;;;;;;;2.2;1.1;;;;;;;8.54;60.76953;920.064;;;;
2020/03/05 13:16:40;;;;;;;2.6;1.1;;;;;;;8.57;61.52344;920.1001;;;;
2020/03/05 13:19:05;;;;;;;1.5;1.1;;;;;;;8.49;61.19238;920.0631;;;;
2020/03/05 13:21:30;;;;;;;2.4;1;;;;;;;8.48;64.21289;919.9744;;;;
2020/03/05 13:23:55;;;;;;;1.7;1;;;;;;;8.26;64.05566;920.0525;;;;
2020/03/05 13:26:21;;;;;;;3.7;1.2;;;;;;;8.24;65.35938;920.0812;;;;
2020/03/05 13:28:46;;;;;;;2.1;1;;;;;;;8.18;65.70215;920.1658;;;;
2020/03/05 13:31:11;;;;;;;2.8;1.3;;;;;;;8.17;66.7002;920.2285;;;;
2020/03/05 13:33:36;;;;;;;1.9;1.2;;;;;;;8.09;68.1748;920.2103;;;;
2020/03/05 13:36:01;;;;;;;3.9;1.7;;;;;;;8.08;68.50195;920.2429;;;;
2020/03/05 13:38:27;;;;;;;2.7;1.2;;;;;;;7.92;67.97656;920.1547;;;;
2020/03/05 13:40:52;;;;;;;3.2;1.5;;;;;;;7.68;69.19922;920.0173;;;;
2020/03/05 13:43:17;;;;;;;2.9;1.5;;;;;;;7.59;71.35059;920.0234;;;;
2020/03/05 13:45:42;;;;;;;2.2;1.1;;;;;;;7.54;71.43164;920.0446;;;;
2020/03/05 13:48:07;;;;;;;3.4;1.3;;;;;;;7.59;71.18945;920.0552;;;;
2020/03/05 13:50:33;;;;;;;4.8;1.9;;;;;;;7.48;70.45801;919.8803;;;;
2020/03/05 13:52:58;;;;;;;2.8;1.7;;;;;;;7.3;71.74414;919.8666;;;;
2020/03/05 13:55:23;;;;;;;2.4;1.2;;;;;;;7.2;72.20215;919.8876;;;;
2020/03/05 13:57:50;;;;;;;3.1;1.7;;;;;;;7.07;71.00293;919.7605;;;;
2020/03/05 14:00:15;;;;;;;4.2;2.1;;;;;;;7.02;72.32031;919.8067;;;;
2020/03/05 14:02:40;;;;;;;3.5;2.3;;;;;;;7.03;72.85449;919.7371;;;;
2020/03/05 14:05:07;;;;;;;4.9;2.5;;;;;;;7.12;72.99414;919.7062;;;;
2020/03/05 14:07:33;;;;;;;4;2.6;;;;;;;7.07;73.22266;919.6845;;;;
2020/03/05 14:09:58;;;;;;;7.4;3.7;;;;;;;7.21;73.02051;919.6345;;;;
2020/03/05 14:12:23;;;;;;;3.8;2;;;;;;;7.23;72.52539;919.5427;;;;
2020/03/05 14:14:48;;;;;;;4;2.1;;;;;;;7.28;73.47461;919.4757;;;;
2020/03/05 14:17:13;;;;;;;3.4;1.8;;;;;;;7.44;73.96582;919.4722;;;;
2020/03/05 14:19:38;;;;;;;2.6;1.5;;;;;;;7.44;72.98145;919.3961;;;;
2020/03/05 14:22:03;;;;;;;1.8;1.3;;;;;;;7.35;73.85938;919.3301;;;;
2020/03/05 14:24:28;;;;;;;5.5;2.5;;;;;;;7.27;72.93945;919.35;;;;
2020/03/05 14:26:53;;;;;;;5.8;2.1;;;;;;;7.48;73.36133;919.2128;;;;
2020/03/05 14:29:19;;;;;;;3.6;1.3;;;;;;;7.01;74.88965;919.1541;;;;
2020/03/05 14:31:44;;;;;;;5.1;2.1;;;;;;;7.2;75.44238;919.2126;;;;
2020/03/05 14:34:09;;;;;;;2.7;1.4;;;;;;;7.17;74.44238;919.0877;;;;
2020/03/05 14:36:35;;;;;;;3.3;1.4;;;;;;;7.21;73.05469;919.0631;;;;
2020/03/05 14:39:00;;;;;;;2;1.1;;;;;;;7.23;73.55664;918.9514;;;;
2020/03/05 14:41:25;;;;;;;2.2;1.2;;;;;;;7.28;73.17871;918.8987;;;;
2020/03/05 14:43:51;;;;;;;2.6;1.7;;;;;;;7.11;73.40039;918.9672;;;;
2020/03/05 14:46:18;;;;;;;2;1.3;;;;;;;7.18;72.37988;918.9128;;;;
2020/03/05 14:48:43;;;;;;;3.7;1.7;;;;;;;6.79;74.92871;918.8113;;;;
2020/03/05 14:51:08;;;;;;;3.4;1.8;;;;;;;7.01;74.18848;918.8051;;;;
2020/03/05 14:53:36;;;;;;;2.8;1.5;;;;;;;7.2;73.9707;918.6094;;;;
2020/03/05 14:56:01;;;;;;;3.2;1.7;;;;;;;7.12;71.49902;918.6917;;;;
2020/03/05 14:58:26;;;;;;;3.3;1.7;;;;;;;7.26;72.04297;918.6163;;;;
2020/03/05 15:00:51;;;;;;;2.6;1.7;;;;;;;7.1;72.0625;918.5946;;;;
2020/03/05 15:03:16;;;;;;;1.4;0.9;;;;;;;6.96;69.68262;918.4327;;;;
2020/03/05 15:05:41;;;;;;;1.5;1.2;;;;;;;6.9;72.40039;918.3914;;;;
2020/03/05 15:08:07;;;;;;;2.9;2;;;;;;;6.61;72.56836;918.199;;;;
2020/03/05 15:10:32;;;;;;;2.3;1.7;;;;;;;6.71;73.06055;918.3025;;;;
2020/03/05 15:12:57;;;;;;;1.3;1.1;;;;;;;6.53;72.74707;918.25;;;;
2020/03/05 15:15:22;;;;;;;3.9;3;;;;;;;6.57;73.63574;918.2148;;;;
2020/03/05 15:17:47;;;;;;;3.1;2.2;;;;;;;6.67;72.13672;918.174;;;;
2020/03/05 15:20:12;;;;;;;2.4;1.6;;;;;;;6.74;71.63965;918.2081;;;;
2020/03/05 15:22:37;;;;;;;1.5;1;;;;;;;6.87;70.41504;918.0452;;;;
2020/03/05 15:25:02;;;;;;;2.2;1.2;;;;;;;7.06;71.10352;918.1559;;;;
2020/03/05 15:27:28;;;;;;;1.9;1.3;;;;;;;6.94;71.24219;918.205;;;;
2020/03/05 15:29:53;;;;;;;1.8;1.1;;;;;;;7.04;70.44336;918.1512;;;;
2020/03/05 15:32:18;;;;;;;3.3;1.4;;;;;;;6.97;70.39746;918.067;;;;
2020/03/05 15:34:44;;;;;;;3.4;1.8;;;;;;;7.11;70.79492;917.8973;;;;
2020/03/05 15:37:09;;;;;;;1.4;0.9;;;;;;;7.08;71.44629;918.0425;;;;
2020/03/05 15:39:34;;;;;;;1.9;1.2;;;;;;;6.88;70.71191;917.8544;;;;
2020/03/05 15:41:59;;;;;;;2.5;2;;;;;;;6.87;72.72461;917.9178;;;;